createdAt,value
2022-09-05T00:01:34.461Z,0.90
2022-09-05T00:04:25.014Z,1.10
2022-09-05T00:07:43.329Z,1.43
2022-09-05T00:10:12.126Z,1.60
2022-09-05T00:12:42.913Z,1.70
2022-09-05T00:15:33.725Z,1.60
2022-09-05T00:20:53.803Z,1.57
2022-09-05T00:24:28.183Z,1.50
2022-09-05T00:24:30.499Z,1.60
2022-09-05T00:27:04.798Z,2.00
2022-09-05T00:31:50.995Z,1.87
2022-09-05T00:32:50.930Z,1.83
2022-09-05T00:36:01.124Z,1.70
2022-09-05T00:38:36.641Z,2.03
2022-09-05T00:41:08.218Z,1.63
2022-09-05T00:43:42.310Z,1.70
2022-09-05T00:46:34.802Z,1.57
2022-09-05T00:49:20.403Z,1.70
2022-09-05T00:52:09.707Z,2.67
2022-09-05T00:55:23.096Z,1.60
2022-09-05T00:58:25.379Z,1.67
2022-09-05T01:00:58.859Z,1.40
2022-09-05T01:03:38.983Z,1.40
2022-09-05T01:06:41.852Z,1.40
2022-09-05T01:09:38.858Z,1.73
2022-09-05T01:12:32.639Z,1.07
2022-09-05T01:15:33.907Z,1.40
2022-09-05T01:18:08.014Z,0.97
2022-09-05T01:21:20.026Z,0.93
2022-09-05T01:23:56.997Z,1.20
2022-09-05T01:26:52.380Z,1.27
2022-09-05T01:29:47.412Z,1.30
2022-09-05T01:32:51.398Z,1.30
2022-09-05T01:36:03.732Z,0.80
2022-09-05T01:40:12.373Z,1.60
2022-09-05T01:41:56.784Z,1.30
2022-09-05T01:44:55.316Z,1.17
2022-09-05T01:47:46.188Z,0.70
2022-09-05T01:51:28.713Z,0.73
2022-09-05T01:53:56.220Z,0.60
2022-09-05T01:56:46.593Z,0.73
2022-09-05T01:59:32.006Z,0.60
2022-09-05T02:02:24.106Z,0.57
2022-09-05T02:05:14.816Z,0.80
2022-09-05T02:08:22.306Z,0.60
2022-09-05T02:11:12.482Z,1.03
2022-09-05T02:14:04.232Z,0.90
2022-09-05T02:16:45.477Z,0.77
2022-09-05T02:19:25.299Z,0.70
2022-09-05T02:22:05.136Z,0.70
2022-09-05T02:24:38.576Z,0.50
2022-09-05T02:27:30.168Z,2.47
2022-09-05T02:30:21.299Z,0.60
2022-09-05T02:32:58.168Z,0.70
2022-09-05T02:35:40.848Z,0.70
2022-09-05T02:40:32.611Z,0.80
2022-09-05T02:45:12.795Z,0.73
2022-09-05T02:45:18.189Z,0.67
2022-09-05T02:46:50.964Z,0.70
2022-09-05T02:51:06.902Z,0.60
2022-09-05T02:57:28.164Z,0.80
2022-09-05T02:57:40.450Z,1.00
2022-09-05T02:58:07.555Z,0.80
2022-09-05T03:00:27.104Z,0.60
2022-09-05T03:03:07.040Z,0.70
2022-09-05T03:05:41.157Z,0.67
2022-09-05T03:08:38.447Z,0.87
2022-09-05T03:11:29.276Z,0.80
2022-09-05T03:14:26.041Z,0.87
2022-09-05T03:17:12.111Z,1.10
2022-09-05T03:20:22.083Z,0.90
2022-09-05T03:23:30.712Z,0.83
2022-09-05T03:26:32.692Z,0.80
2022-09-05T03:29:32.286Z,1.47
2022-09-05T03:32:40.280Z,0.80
2022-09-05T03:35:44.839Z,1.10
2022-09-05T03:38:41.563Z,0.80
2022-09-05T03:41:25.225Z,0.87
2022-09-05T03:44:13.150Z,1.67
2022-09-05T03:47:34.657Z,0.90
2022-09-05T03:56:36.896Z,2.00
2022-09-05T03:57:15.327Z,0.67
2022-09-05T03:57:16.934Z,1.27
2022-09-05T03:59:48.534Z,0.83
2022-09-05T04:05:57.245Z,1.20
2022-09-05T04:08:20.390Z,1.30
2022-09-05T04:08:24.734Z,1.10
2022-09-05T04:10:31.075Z,0.80
2022-09-05T04:13:07.651Z,1.03
2022-09-05T04:15:41.794Z,1.03
2022-09-05T04:18:33.232Z,1.13
2022-09-05T04:21:09.116Z,1.10
2022-09-05T04:23:45.988Z,0.90
2022-09-05T04:26:42.864Z,0.83
2022-09-05T04:29:42.390Z,0.80
2022-09-05T04:32:33.322Z,0.93
2022-09-05T04:35:38.009Z,1.00
2022-09-05T04:38:19.726Z,1.50
2022-09-05T04:41:06.135Z,1.20
2022-09-05T04:43:40.234Z,1.03
2022-09-05T04:46:32.037Z,0.80
2022-09-05T04:49:25.444Z,0.90
2022-09-05T04:52:40.605Z,1.43
2022-09-05T04:55:35.861Z,1.37
2022-09-05T04:59:41.870Z,1.00
2022-09-05T05:06:05.242Z,1.10
2022-09-05T05:06:10.848Z,1.17
2022-09-05T05:06:47.339Z,0.77
2022-09-05T05:09:21.959Z,0.70
2022-09-05T05:18:01.025Z,0.70
2022-09-05T05:18:08.630Z,1.00
2022-09-05T05:18:10.725Z,0.80
2022-09-05T05:20:39.808Z,0.80
2022-09-05T05:23:08.369Z,0.70
2022-09-05T05:25:57.336Z,1.07
2022-09-05T05:28:58.719Z,0.80
2022-09-05T05:31:38.230Z,1.10
2022-09-05T05:34:25.103Z,1.23
2022-09-05T05:37:05.236Z,1.10
2022-09-05T05:39:38.946Z,1.13
2022-09-05T05:42:20.822Z,1.27
2022-09-05T05:44:54.962Z,1.70
2022-09-05T05:47:37.739Z,1.20
2022-09-05T05:50:11.913Z,1.73
2022-09-05T05:53:07.144Z,2.10
2022-09-05T05:56:32.734Z,1.67
2022-09-05T05:59:25.082Z,1.57
2022-09-05T06:02:08.397Z,1.63
2022-09-05T06:05:32.518Z,3.30
2022-09-05T06:10:45.967Z,2.83
2022-09-05T06:14:55.457Z,1.93
2022-09-05T06:14:58.263Z,2.03
2022-09-05T06:16:45.798Z,1.50
2022-09-05T06:19:22.843Z,1.93
2022-09-05T06:22:45.398Z,1.30
2022-09-05T06:25:47.930Z,1.97
2022-09-05T06:28:45.968Z,1.50
2022-09-05T06:31:33.341Z,1.70
2022-09-05T06:34:33.282Z,2.37
2022-09-05T06:37:16.626Z,2.40
2022-09-05T06:40:17.105Z,3.13
2022-09-05T06:43:23.511Z,2.00
2022-09-05T06:46:50.635Z,2.33
2022-09-05T06:49:29.915Z,2.30
2022-09-05T06:51:45.784Z,2.00
2022-09-05T06:54:25.625Z,2.60
2022-09-05T06:57:30.147Z,1.80
2022-09-05T07:00:30.158Z,2.37
2022-09-05T07:03:37.269Z,2.57
2022-09-05T07:07:01.190Z,1.57
2022-09-05T07:09:08.573Z,1.90
2022-09-05T07:12:29.992Z,2.13
2022-09-05T07:15:08.619Z,2.77
2022-09-05T07:18:09.542Z,1.60
2022-09-05T07:20:27.912Z,1.43
2022-09-05T07:23:57.819Z,2.23
2022-09-05T07:26:02.517Z,1.23
2022-09-05T07:28:34.780Z,1.40
2022-09-05T07:31:11.865Z,1.57
2022-09-05T07:33:48.290Z,1.63
2022-09-05T07:36:24.834Z,1.60
2022-09-05T07:39:25.349Z,2.40
2022-09-05T07:41:38.389Z,1.30
2022-09-05T07:44:34.152Z,3.20
2022-09-05T07:47:17.202Z,1.60
2022-09-05T07:50:12.583Z,1.10
2022-09-05T07:56:58.566Z,3.27
2022-09-05T07:56:59.521Z,1.37
2022-09-05T07:57:51.395Z,1.60
2022-09-05T08:00:25.792Z,1.70
2022-09-05T08:02:54.546Z,2.00
2022-09-05T08:05:31.054Z,3.00
2022-09-05T08:08:02.500Z,2.47
2022-09-05T08:11:14.494Z,2.23
2022-09-05T08:13:34.269Z,1.80
2022-09-05T08:16:13.180Z,2.10
2022-09-05T08:19:04.073Z,4.20
2022-09-05T08:21:52.715Z,1.60
2022-09-05T08:24:36.683Z,1.97
2022-09-05T08:27:25.735Z,2.50
2022-09-05T08:30:24.730Z,2.00
2022-09-05T08:32:48.919Z,1.57
2022-09-05T08:35:29.265Z,2.70
2022-09-05T08:38:00.660Z,2.03
2022-09-05T08:40:40.916Z,2.03
2022-09-05T08:46:37.434Z,2.37
2022-09-05T08:46:43.475Z,1.80
2022-09-05T08:49:12.351Z,2.17
2022-09-05T08:51:56.991Z,2.27
2022-09-05T08:55:19.612Z,2.20
2022-09-05T08:57:56.556Z,2.80
2022-09-05T09:00:27.749Z,1.90
2022-09-05T09:03:15.503Z,1.97
2022-09-05T09:06:14.241Z,3.03
2022-09-05T09:09:09.643Z,2.27
2022-09-05T09:11:52.337Z,2.00
2022-09-05T09:14:38.412Z,1.60
2022-09-05T09:17:28.335Z,2.50
2022-09-05T09:20:33.830Z,1.93
2022-09-05T09:23:33.805Z,1.73
2022-09-05T09:26:24.534Z,1.57
2022-09-05T09:29:07.252Z,1.70
2022-09-05T09:32:09.549Z,2.23
2022-09-05T09:35:00.423Z,1.70
2022-09-05T09:38:06.909Z,1.40
2022-09-05T09:41:00.852Z,2.03
2022-09-05T09:43:31.133Z,1.93
2022-09-05T09:46:27.735Z,1.97
2022-09-05T09:49:23.299Z,2.50
2022-09-05T09:52:00.380Z,1.80
2022-09-05T09:54:54.480Z,1.90
2022-09-05T09:57:59.484Z,2.00
2022-09-05T10:00:39.057Z,3.37
2022-09-05T10:06:35.235Z,1.60
2022-09-05T10:10:44.353Z,1.70
2022-09-05T10:11:09.533Z,1.50
2022-09-05T10:12:33.864Z,1.83
2022-09-05T10:15:31.288Z,1.97
2022-09-05T10:18:03.759Z,2.17
2022-09-05T10:21:16.919Z,2.47
2022-09-05T10:24:23.375Z,2.40
2022-09-05T10:27:14.192Z,2.50
2022-09-05T10:30:09.051Z,2.40
2022-09-05T10:35:05.902Z,2.27
2022-09-05T10:35:45.363Z,2.67
2022-09-05T10:38:40.409Z,1.87
2022-09-05T10:41:21.033Z,1.70
2022-09-05T10:44:02.122Z,2.40
2022-09-05T10:46:54.198Z,2.10
2022-09-05T10:49:34.480Z,2.30
2022-09-05T10:52:18.831Z,1.67
2022-09-05T10:55:14.906Z,1.50
2022-09-05T10:57:44.015Z,2.10
2022-09-05T11:02:21.117Z,2.17
2022-09-05T11:03:22.467Z,2.20
2022-09-05T11:05:59.636Z,2.73
2022-09-05T11:08:50.342Z,2.60
2022-09-05T11:11:28.358Z,2.00
2022-09-05T11:13:56.794Z,1.90
2022-09-05T11:16:48.831Z,1.77
2022-09-05T11:19:47.086Z,1.77
2022-09-05T11:22:23.633Z,2.27
2022-09-05T11:25:00.903Z,1.63
2022-09-05T11:27:47.120Z,1.83
2022-09-05T11:30:31.039Z,1.80
2022-09-05T11:39:45.663Z,1.80
2022-09-05T11:40:05.205Z,1.70
2022-09-05T11:40:07.454Z,1.90
2022-09-05T11:41:41.905Z,2.33
2022-09-05T11:44:31.144Z,2.17
2022-09-05T11:47:42.222Z,2.00
2022-09-05T11:50:29.539Z,1.90
2022-09-05T11:53:37.546Z,1.60
2022-09-05T11:56:45.704Z,1.77
2022-09-05T11:59:37.598Z,1.70
2022-09-05T12:02:26.536Z,1.57
2022-09-05T12:05:49.561Z,2.77
2022-09-05T12:08:23.483Z,1.80
2022-09-05T12:11:17.004Z,1.50
2022-09-05T12:14:21.419Z,1.90
2022-09-05T12:17:32.837Z,2.40
2022-09-05T12:20:17.186Z,1.50
2022-09-05T12:22:46.667Z,2.20
2022-09-05T12:27:40.031Z,1.80
2022-09-05T12:31:11.990Z,2.43
2022-09-05T12:35:52.929Z,1.60
2022-09-05T12:40:28.688Z,1.97
2022-09-05T12:41:38.939Z,1.70
2022-09-05T12:42:09.960Z,1.90
2022-09-05T12:42:10.191Z,1.73
2022-09-05T12:44:38.063Z,1.60
2022-09-05T12:47:19.855Z,1.30
2022-09-05T12:50:03.355Z,1.53
2022-09-05T12:52:39.341Z,1.93
2022-09-05T12:55:22.457Z,2.57
2022-09-05T13:02:55.152Z,1.77
2022-09-05T13:03:02.326Z,2.30
2022-09-05T13:03:30.233Z,1.80
2022-09-05T13:06:08.804Z,1.70
2022-09-05T13:08:59.238Z,2.10
2022-09-05T13:14:54.223Z,1.83
2022-09-05T13:14:57.458Z,1.87
2022-09-05T13:16:47.169Z,1.77
2022-09-05T13:19:28.231Z,2.40
2022-09-05T13:22:01.629Z,1.90
2022-09-05T13:24:35.917Z,1.93
2022-09-05T13:27:24.782Z,1.70
2022-09-05T13:31:40.677Z,2.03
2022-09-05T13:38:20.681Z,2.00
2022-09-05T13:38:27.537Z,2.27
2022-09-05T13:38:49.166Z,1.80
2022-09-05T13:40:59.023Z,1.80
2022-09-05T13:43:38.321Z,1.73
2022-09-05T13:46:18.137Z,2.43
2022-09-05T13:51:45.909Z,1.60
2022-09-05T13:54:25.959Z,2.20
2022-09-05T13:57:32.759Z,2.23
2022-09-05T14:00:27.294Z,2.13
2022-09-05T14:03:40.581Z,1.90
2022-09-05T14:06:49.364Z,2.20
2022-09-05T14:09:46.517Z,2.63
2022-09-05T14:12:43.209Z,1.73
2022-09-05T14:15:52.341Z,1.70
2022-09-05T14:18:30.226Z,2.43
2022-09-05T14:21:16.230Z,2.17
2022-09-05T14:24:05.030Z,2.37
2022-09-05T14:26:47.121Z,1.90
2022-09-05T14:29:49.893Z,1.60
2022-09-05T14:37:36.554Z,2.10
2022-09-05T14:37:50.191Z,1.97
2022-09-05T14:38:25.990Z,2.00
2022-09-05T14:41:20.217Z,2.03
2022-09-05T14:44:27.621Z,1.73
2022-09-05T14:47:32.366Z,1.83
2022-09-05T14:50:17.509Z,2.20
2022-09-05T14:55:31.666Z,2.40
2022-09-05T15:02:39.167Z,2.40
2022-09-05T15:02:49.556Z,1.93
2022-09-05T15:03:12.800Z,2.13
2022-09-05T15:05:50.544Z,1.63
2022-09-05T15:09:48.857Z,1.50
2022-09-05T15:12:23.540Z,1.50
2022-09-05T15:13:37.142Z,2.20
2022-09-05T15:16:14.113Z,2.27
2022-09-05T15:18:49.425Z,2.10
2022-09-05T15:21:36.973Z,2.17
2022-09-05T15:24:21.333Z,2.13
2022-09-05T15:26:57.582Z,2.27
2022-09-05T15:29:36.208Z,2.93
2022-09-05T15:32:28.140Z,2.33
2022-09-05T15:35:01.159Z,2.20
2022-09-05T15:37:42.598Z,2.20
2022-09-05T15:40:23.372Z,1.90
2022-09-05T15:43:02.059Z,2.10
2022-09-05T15:45:38.176Z,1.60
2022-09-05T15:48:18.550Z,1.80
2022-09-05T15:50:53.109Z,1.90
2022-09-05T15:53:36.729Z,2.10
2022-09-05T15:56:19.651Z,1.70
2022-09-05T15:58:59.535Z,2.10
2022-09-05T16:01:58.471Z,1.93
2022-09-05T16:05:35.631Z,1.90
2022-09-05T16:10:34.099Z,1.80
2022-09-05T16:10:46.460Z,2.03
2022-09-05T16:12:16.722Z,1.63
2022-09-05T16:16:22.833Z,2.00
2022-09-05T16:23:20.495Z,1.67
2022-09-05T16:23:28.089Z,1.93
2022-09-05T16:23:39.574Z,2.17
2022-09-05T16:25:53.995Z,1.73
2022-09-05T16:28:28.099Z,1.50
2022-09-05T16:31:19.414Z,1.80
2022-09-05T16:33:50.387Z,1.80
2022-09-05T16:36:33.271Z,2.27
2022-09-05T16:39:10.234Z,1.70
2022-09-05T16:41:50.712Z,1.50
2022-09-05T16:44:29.912Z,2.23
2022-09-05T16:47:28.469Z,1.70
2022-09-05T16:50:26.379Z,1.70
2022-09-05T16:53:05.427Z,2.87
2022-09-05T16:55:44.041Z,2.23
2022-09-05T16:58:35.093Z,2.10
2022-09-05T17:01:21.349Z,1.50
2022-09-05T17:04:09.809Z,1.67
2022-09-05T17:06:54.111Z,1.50
2022-09-05T17:09:42.439Z,1.20
2022-09-05T17:12:22.303Z,1.20
2022-09-05T17:14:55.204Z,1.33
2022-09-05T17:18:21.249Z,1.17
2022-09-05T17:20:14.602Z,1.80
2022-09-05T17:26:39.047Z,1.80
2022-09-05T17:29:24.591Z,1.57
2022-09-05T17:29:33.946Z,1.70
2022-09-05T17:33:45.084Z,1.40
2022-09-05T17:36:40.993Z,1.60
2022-09-05T17:39:12.578Z,1.60
2022-09-05T17:41:52.142Z,1.53
2022-09-05T17:44:32.241Z,1.30
2022-09-05T17:47:14.700Z,1.77
2022-09-05T17:49:47.237Z,1.27
2022-09-05T17:52:22.870Z,1.60
2022-09-05T17:54:55.509Z,1.70
2022-09-05T17:57:35.123Z,1.40
2022-09-05T18:00:29.294Z,2.90
2022-09-05T18:02:58.209Z,1.13
2022-09-05T18:06:02.636Z,1.10
2022-09-05T18:08:53.004Z,1.33
2022-09-05T18:11:30.306Z,1.23
2022-09-05T18:14:08.124Z,1.40
2022-09-05T18:17:36.332Z,1.60
2022-09-05T18:19:43.978Z,1.90
2022-09-05T18:22:33.450Z,1.07
2022-09-05T18:25:30.890Z,1.00
2022-09-05T18:28:04.612Z,0.90
2022-09-05T18:33:55.418Z,0.80
2022-09-05T18:36:01.798Z,1.00
2022-09-05T18:38:51.067Z,0.90
2022-09-05T18:41:18.195Z,0.90
2022-09-05T18:44:13.722Z,1.13
2022-09-05T18:46:42.775Z,0.60
2022-09-05T18:50:26.491Z,0.80
2022-09-05T18:52:05.136Z,0.80
2022-09-05T18:54:37.759Z,0.80
2022-09-05T18:57:26.560Z,0.80
2022-09-05T18:59:56.778Z,0.70
2022-09-05T19:02:58.835Z,0.70
2022-09-05T19:05:51.802Z,0.80
2022-09-05T19:08:32.175Z,1.00
2022-09-05T19:11:18.702Z,1.90
2022-09-05T19:13:40.107Z,1.63
2022-09-05T19:16:43.442Z,0.90
2022-09-05T19:19:16.039Z,1.00
2022-09-05T19:23:06.618Z,1.07
2022-09-05T19:24:44.583Z,1.00
2022-09-05T19:27:53.322Z,1.43
2022-09-05T19:36:49.748Z,0.83
2022-09-05T19:37:05.767Z,0.70
2022-09-05T19:37:13.758Z,0.80
2022-09-05T19:37:28.975Z,0.60
2022-09-05T19:43:29.743Z,0.97
2022-09-05T19:47:29.718Z,0.80
2022-09-05T19:47:42.607Z,1.00
2022-09-05T19:50:11.460Z,0.70
2022-09-05T19:52:41.655Z,1.00
2022-09-05T19:55:27.687Z,0.77
2022-09-05T19:58:19.459Z,0.90
2022-09-05T20:00:30.244Z,0.67
2022-09-05T20:03:01.667Z,1.00
2022-09-05T20:05:32.797Z,0.90
2022-09-05T20:08:04.192Z,0.73
2022-09-05T20:10:36.601Z,0.73
2022-09-05T20:13:26.427Z,0.73
2022-09-05T20:15:56.063Z,0.63
2022-09-05T20:18:40.319Z,0.80
2022-09-05T20:21:30.989Z,0.80
2022-09-05T20:24:00.922Z,0.70
2022-09-05T20:26:34.265Z,1.40
2022-09-05T20:29:10.067Z,0.90
2022-09-05T20:31:40.268Z,1.07
2022-09-05T20:35:25.846Z,0.90
2022-09-05T20:43:09.198Z,0.60
2022-09-05T20:43:20.079Z,0.80
2022-09-05T20:43:28.947Z,0.93
2022-09-05T20:44:43.382Z,0.90
2022-09-05T20:53:35.177Z,0.70
2022-09-05T20:54:21.957Z,1.10
2022-09-05T20:54:25.800Z,0.80
2022-09-05T20:55:38.765Z,0.97
2022-09-05T20:58:18.585Z,1.30
2022-09-05T21:01:15.733Z,0.83
2022-09-05T21:03:32.608Z,0.90
2022-09-05T21:06:33.768Z,0.90
2022-09-05T21:09:26.157Z,0.87
2022-09-05T21:11:59.817Z,0.90
2022-09-05T21:14:30.757Z,1.33
2022-09-05T21:17:15.134Z,0.83
2022-09-05T21:19:38.337Z,1.37
2022-09-05T21:22:27.364Z,1.00
2022-09-05T21:25:21.734Z,1.00
2022-09-05T21:28:08.767Z,1.00
2022-09-05T21:30:42.987Z,0.90
2022-09-05T21:33:20.578Z,0.90
2022-09-05T21:36:01.861Z,1.00
2022-09-05T21:38:35.746Z,1.23
2022-09-05T21:41:07.204Z,1.13
2022-09-05T21:47:34.367Z,2.97
2022-09-05T21:47:40.083Z,1.57
2022-09-05T21:48:43.397Z,1.80
2022-09-05T21:51:15.548Z,2.30
2022-09-05T21:59:15.200Z,1.03
2022-09-05T21:59:16.154Z,0.87
2022-09-05T21:59:26.885Z,1.10
2022-09-05T22:01:51.536Z,1.23
2022-09-05T22:04:07.497Z,1.00
2022-09-05T22:06:37.322Z,0.70
2022-09-05T22:09:14.004Z,0.83
2022-09-05T22:11:38.033Z,0.90
2022-09-05T22:14:09.065Z,0.70
2022-09-05T22:16:45.181Z,1.13
2022-09-05T22:19:20.735Z,0.70
2022-09-05T22:21:54.985Z,0.70
2022-09-05T22:24:27.489Z,0.60
2022-09-05T22:27:11.180Z,0.90
2022-09-05T22:29:28.702Z,0.73
2022-09-05T22:31:58.187Z,0.63
2022-09-05T22:34:29.331Z,0.97
2022-09-05T22:36:58.815Z,1.13
2022-09-05T22:39:36.889Z,2.53
2022-09-05T22:41:59.606Z,0.72
2022-09-05T22:44:29.585Z,0.60
2022-09-05T22:46:59.137Z,0.80
2022-09-05T22:49:28.627Z,0.73
2022-09-05T22:51:58.130Z,0.60
2022-09-05T22:54:27.609Z,0.57
2022-09-05T22:56:57.091Z,0.60
2022-09-05T22:59:26.587Z,0.57
2022-09-05T23:01:56.273Z,1.20
2022-09-05T23:04:26.224Z,0.63
2022-09-05T23:06:55.825Z,0.53
2022-09-05T23:09:25.315Z,0.40
2022-09-05T23:11:54.869Z,0.43
2022-09-05T23:14:24.366Z,0.77
2022-09-05T23:16:54.022Z,0.50
2022-09-05T23:19:23.520Z,0.60
2022-09-05T23:21:53.023Z,0.50
2022-09-05T23:24:22.503Z,0.50
2022-09-05T23:26:52.002Z,0.30
2022-09-05T23:29:21.475Z,0.60
2022-09-05T23:31:51.714Z,0.87
2022-09-05T23:34:21.203Z,0.50
2022-09-05T23:36:50.700Z,0.43
2022-09-05T23:39:20.179Z,0.50
2022-09-05T23:41:49.676Z,0.50
2022-09-05T23:44:19.173Z,0.40
2022-09-05T23:46:48.680Z,0.30
2022-09-05T23:49:18.170Z,0.40
2022-09-05T23:51:47.680Z,0.53
2022-09-05T23:54:17.173Z,0.30
2022-09-05T23:56:46.675Z,1.57
2022-09-05T23:59:16.163Z,0.70
